sensor_id;sensor_type;location;lat;lon;timestamp;pressure;altitude;pressure_sealevel;temperature;humidity
66176;BME280;52977;44.816;20.538;2024-02-21T00:01:17;100540.53;;;9.97;86.35
66176;BME280;52977;44.816;20.538;2024-02-21T00:03:44;100552.47;;;10.01;86.09
66176;BME280;52977;44.816;20.538;2024-02-21T00:06:11;100536.09;;;10.01;86.07
66176;BME280;52977;44.816;20.538;2024-02-21T00:08:39;100541.06;;;9.99;86.43
66176;BME280;52977;44.816;20.538;2024-02-21T00:11:06;100536.41;;;10.00;86.07
66176;BME280;52977;44.816;20.538;2024-02-21T00:13:34;100527.19;;;9.96;85.52
66176;BME280;52977;44.816;20.538;2024-02-21T00:16:01;100534.47;;;10.00;85.46
66176;BME280;52977;44.816;20.538;2024-02-21T00:18:27;100525.88;;;9.93;85.74
66176;BME280;52977;44.816;20.538;2024-02-21T00:20:54;100526.34;;;9.81;87.20
66176;BME280;52977;44.816;20.538;2024-02-21T00:23:20;100528.59;;;9.93;86.14
66176;BME280;52977;44.816;20.538;2024-02-21T00:25:47;100528.91;;;9.91;85.81
66176;BME280;52977;44.816;20.538;2024-02-21T00:28:13;100524.16;;;9.97;85.46
66176;BME280;52977;44.816;20.538;2024-02-21T00:30:39;100526.47;;;9.90;86.42
66176;BME280;52977;44.816;20.538;2024-02-21T00:33:06;100532.41;;;9.92;86.29
66176;BME280;52977;44.816;20.538;2024-02-21T00:35:32;100521.75;;;9.96;86.41
66176;BME280;52977;44.816;20.538;2024-02-21T00:37:58;100523.44;;;9.91;86.06
66176;BME280;52977;44.816;20.538;2024-02-21T00:40:25;100525.13;;;9.87;86.13
66176;BME280;52977;44.816;20.538;2024-02-21T00:42:52;100524.66;;;9.85;86.21
66176;BME280;52977;44.816;20.538;2024-02-21T00:45:18;100514.22;;;9.87;85.78
66176;BME280;52977;44.816;20.538;2024-02-21T00:47:44;100523.81;;;9.85;86.43
66176;BME280;52977;44.816;20.538;2024-02-21T00:50:11;100512.03;;;9.89;85.73
66176;BME280;52977;44.816;20.538;2024-02-21T00:52:37;100515.56;;;9.90;85.35
66176;BME280;52977;44.816;20.538;2024-02-21T00:55:04;100511.38;;;9.79;85.57
66176;BME280;52977;44.816;20.538;2024-02-21T00:57:31;100513.97;;;9.51;87.12
66176;BME280;52977;44.816;20.538;2024-02-21T00:59:58;100514.84;;;9.65;86.50
66176;BME280;52977;44.816;20.538;2024-02-21T01:02:24;100511.97;;;9.56;86.44
66176;BME280;52977;44.816;20.538;2024-02-21T01:04:50;100511.25;;;9.51;87.20
66176;BME280;52977;44.816;20.538;2024-02-21T01:07:17;100512.13;;;9.65;86.79
66176;BME280;52977;44.816;20.538;2024-02-21T01:09:43;100508.72;;;9.73;86.24
66176;BME280;52977;44.816;20.538;2024-02-21T01:12:09;100507.69;;;9.69;86.76
66176;BME280;52977;44.816;20.538;2024-02-21T01:14:34;100505.63;;;9.61;86.58
66176;BME280;52977;44.816;20.538;2024-02-21T01:17:01;100501.22;;;9.65;87.23
66176;BME280;52977;44.816;20.538;2024-02-21T01:19:27;100502.78;;;9.71;86.58
66176;BME280;52977;44.816;20.538;2024-02-21T01:21:53;100504.16;;;9.69;86.62
66176;BME280;52977;44.816;20.538;2024-02-21T01:24:19;100497.38;;;9.66;86.85
66176;BME280;52977;44.816;20.538;2024-02-21T01:26:45;100499.22;;;9.71;86.80
66176;BME280;52977;44.816;20.538;2024-02-21T01:29:11;100496.78;;;9.69;86.34
66176;BME280;52977;44.816;20.538;2024-02-21T01:31:38;100499.09;;;9.62;86.90
66176;BME280;52977;44.816;20.538;2024-02-21T01:34:04;100489.44;;;9.70;86.76
66176;BME280;52977;44.816;20.538;2024-02-21T01:36:30;100499.38;;;9.61;87.12
66176;BME280;52977;44.816;20.538;2024-02-21T01:38:57;100502.41;;;9.59;86.55
66176;BME280;52977;44.816;20.538;2024-02-21T01:41:23;100505.38;;;9.44;87.52
66176;BME280;52977;44.816;20.538;2024-02-21T01:43:50;100501.44;;;9.50;87.73
66176;BME280;52977;44.816;20.538;2024-02-21T01:46:16;100504.16;;;9.50;87.73
66176;BME280;52977;44.816;20.538;2024-02-21T01:48:42;100501.97;;;9.52;88.04
66176;BME280;52977;44.816;20.538;2024-02-21T01:51:12;100498.59;;;9.60;87.19
66176;BME280;52977;44.816;20.538;2024-02-21T01:53:43;100494.66;;;9.66;86.47
66176;BME280;52977;44.816;20.538;2024-02-21T01:56:10;100486.00;;;9.64;86.45
66176;BME280;52977;44.816;20.538;2024-02-21T01:58:37;100480.72;;;9.68;86.75
66176;BME280;52977;44.816;20.538;2024-02-21T02:01:05;100474.78;;;9.66;86.64
66176;BME280;52977;44.816;20.538;2024-02-21T02:03:31;100483.25;;;9.64;87.13
66176;BME280;52977;44.816;20.538;2024-02-21T02:05:59;100478.38;;;9.61;86.49
66176;BME280;52977;44.816;20.538;2024-02-21T02:08:26;100483.13;;;9.36;87.46
66176;BME280;52977;44.816;20.538;2024-02-21T02:10:52;100492.75;;;9.29;88.50
66176;BME280;52977;44.816;20.538;2024-02-21T02:13:19;100486.34;;;9.38;88.36
66176;BME280;52977;44.816;20.538;2024-02-21T02:15:46;100486.78;;;9.46;88.30
66176;BME280;52977;44.816;20.538;2024-02-21T02:18:14;100484.66;;;9.43;88.01
66176;BME280;52977;44.816;20.538;2024-02-21T02:20:41;100480.88;;;9.19;88.51
66176;BME280;52977;44.816;20.538;2024-02-21T02:23:26;100479.44;;;9.27;88.60
66176;BME280;52977;44.816;20.538;2024-02-21T02:25:53;100478.19;;;9.38;88.25
66176;BME280;52977;44.816;20.538;2024-02-21T02:28:20;100479.88;;;9.34;88.30
66176;BME280;52977;44.816;20.538;2024-02-21T02:30:47;100480.91;;;9.38;88.78
66176;BME280;52977;44.816;20.538;2024-02-21T02:33:13;100475.69;;;9.23;88.94
66176;BME280;52977;44.816;20.538;2024-02-21T02:35:40;100485.13;;;9.31;89.05
66176;BME280;52977;44.816;20.538;2024-02-21T02:38:06;100481.06;;;9.28;88.28
66176;BME280;52977;44.816;20.538;2024-02-21T02:40:34;100481.19;;;9.37;88.22
66176;BME280;52977;44.816;20.538;2024-02-21T02:43:01;100493.28;;;9.12;89.99
66176;BME280;52977;44.816;20.538;2024-02-21T02:45:27;100488.94;;;9.30;88.17
66176;BME280;52977;44.816;20.538;2024-02-21T02:47:54;100488.78;;;9.40;87.75
66176;BME280;52977;44.816;20.538;2024-02-21T02:50:20;100497.41;;;9.28;86.74
66176;BME280;52977;44.816;20.538;2024-02-21T02:52:46;100496.28;;;9.29;88.21
66176;BME280;52977;44.816;20.538;2024-02-21T02:55:13;100493.19;;;9.36;87.84
66176;BME280;52977;44.816;20.538;2024-02-21T02:57:39;100507.00;;;9.45;87.07
66176;BME280;52977;44.816;20.538;2024-02-21T03:00:08;100510.00;;;9.24;87.53
66176;BME280;52977;44.816;20.538;2024-02-21T03:02:39;100505.19;;;9.16;88.45
66176;BME280;52977;44.816;20.538;2024-02-21T03:05:14;100513.78;;;9.04;89.45
66176;BME280;52977;44.816;20.538;2024-02-21T03:07:41;100513.69;;;8.90;90.49
66176;BME280;52977;44.816;20.538;2024-02-21T03:10:08;100510.41;;;8.93;90.75
66176;BME280;52977;44.816;20.538;2024-02-21T03:12:34;100511.88;;;8.80;91.04
66176;BME280;52977;44.816;20.538;2024-02-21T03:15:01;100511.78;;;8.66;92.15
66176;BME280;52977;44.816;20.538;2024-02-21T03:17:28;100517.88;;;8.82;91.65
66176;BME280;52977;44.816;20.538;2024-02-21T03:19:55;100524.25;;;8.72;92.62
66176;BME280;52977;44.816;20.538;2024-02-21T03:22:26;100520.88;;;8.81;91.62
66176;BME280;52977;44.816;20.538;2024-02-21T03:24:51;100525.06;;;8.97;91.17
66176;BME280;52977;44.816;20.538;2024-02-21T03:27:17;100526.91;;;9.02;89.65
66176;BME280;52977;44.816;20.538;2024-02-21T03:29:43;100527.72;;;8.78;91.21
66176;BME280;52977;44.816;20.538;2024-02-21T03:32:09;100523.91;;;8.79;90.97
66176;BME280;52977;44.816;20.538;2024-02-21T03:34:36;100523.53;;;8.86;91.01
66176;BME280;52977;44.816;20.538;2024-02-21T03:37:02;100522.97;;;8.89;90.68
66176;BME280;52977;44.816;20.538;2024-02-21T03:39:32;100520.41;;;8.98;90.97
66176;BME280;52977;44.816;20.538;2024-02-21T03:41:59;100524.13;;;9.07;89.95
66176;BME280;52977;44.816;20.538;2024-02-21T03:44:31;100531.78;;;8.81;90.91
66176;BME280;52977;44.816;20.538;2024-02-21T03:46:58;100530.84;;;8.91;91.22
66176;BME280;52977;44.816;20.538;2024-02-21T03:49:25;100536.47;;;8.75;91.22
66176;BME280;52977;44.816;20.538;2024-02-21T03:51:51;100535.59;;;8.80;91.09
66176;BME280;52977;44.816;20.538;2024-02-21T03:54:19;100538.44;;;8.69;91.76
66176;BME280;52977;44.816;20.538;2024-02-21T03:56:45;100541.03;;;8.55;93.00
66176;BME280;52977;44.816;20.538;2024-02-21T03:59:13;100540.16;;;8.60;93.60
66176;BME280;52977;44.816;20.538;2024-02-21T04:01:39;100544.19;;;8.68;92.65
66176;BME280;52977;44.816;20.538;2024-02-21T04:04:05;100534.31;;;8.72;92.27
66176;BME280;52977;44.816;20.538;2024-02-21T04:06:33;100549.16;;;8.85;91.93
66176;BME280;52977;44.816;20.538;2024-02-21T04:08:59;100532.91;;;8.75;92.06
66176;BME280;52977;44.816;20.538;2024-02-21T04:11:28;100536.34;;;8.85;91.15
66176;BME280;52977;44.816;20.538;2024-02-21T04:13:55;100526.75;;;8.93;91.54
66176;BME280;52977;44.816;20.538;2024-02-21T04:16:21;100533.44;;;9.01;91.10
66176;BME280;52977;44.816;20.538;2024-02-21T04:18:48;100527.28;;;8.90;90.93
66176;BME280;52977;44.816;20.538;2024-02-21T04:21:15;100533.97;;;8.79;91.34
66176;BME280;52977;44.816;20.538;2024-02-21T04:23:42;100529.56;;;8.83;91.21
66176;BME280;52977;44.816;20.538;2024-02-21T04:26:09;100527.59;;;8.88;91.09
66176;BME280;52977;44.816;20.538;2024-02-21T04:28:35;100526.31;;;8.57;93.01
66176;BME280;52977;44.816;20.538;2024-02-21T04:31:01;100533.66;;;8.56;93.06
66176;BME280;52977;44.816;20.538;2024-02-21T04:33:28;100535.94;;;8.73;92.20
66176;BME280;52977;44.816;20.538;2024-02-21T04:35:54;100531.25;;;8.79;91.96
66176;BME280;52977;44.816;20.538;2024-02-21T04:38:21;100534.78;;;8.79;91.86
66176;BME280;52977;44.816;20.538;2024-02-21T04:40:47;100533.16;;;8.78;91.90
66176;BME280;52977;44.816;20.538;2024-02-21T04:43:14;100537.31;;;8.70;92.10
66176;BME280;52977;44.816;20.538;2024-02-21T04:45:40;100534.28;;;8.48;93.70
66176;BME280;52977;44.816;20.538;2024-02-21T04:48:06;100541.03;;;8.55;93.40
66176;BME280;52977;44.816;20.538;2024-02-21T04:50:33;100551.34;;;8.59;93.80
66176;BME280;52977;44.816;20.538;2024-02-21T04:52:59;100545.19;;;8.48;92.98
66176;BME280;52977;44.816;20.538;2024-02-21T04:55:25;100539.56;;;8.63;92.88
66176;BME280;52977;44.816;20.538;2024-02-21T04:57:52;100540.31;;;8.39;94.03
66176;BME280;52977;44.816;20.538;2024-02-21T05:00:18;100550.69;;;8.37;94.69
66176;BME280;52977;44.816;20.538;2024-02-21T05:02:44;100548.59;;;8.29;94.10
66176;BME280;52977;44.816;20.538;2024-02-21T05:05:10;100544.13;;;8.38;93.79
66176;BME280;52977;44.816;20.538;2024-02-21T05:07:36;100542.31;;;7.99;96.71
66176;BME280;52977;44.816;20.538;2024-02-21T05:10:03;100542.69;;;8.22;95.91
66176;BME280;52977;44.816;20.538;2024-02-21T05:12:29;100535.97;;;8.38;94.81
66176;BME280;52977;44.816;20.538;2024-02-21T05:14:56;100540.28;;;8.50;94.08
66176;BME280;52977;44.816;20.538;2024-02-21T05:17:25;100542.72;;;8.51;93.69
66176;BME280;52977;44.816;20.538;2024-02-21T05:19:51;100531.41;;;8.63;93.52
66176;BME280;52977;44.816;20.538;2024-02-21T05:22:18;100542.53;;;8.67;92.45
66176;BME280;52977;44.816;20.538;2024-02-21T05:24:44;100549.88;;;8.37;93.41
66176;BME280;52977;44.816;20.538;2024-02-21T05:27:10;100557.06;;;8.23;94.21
66176;BME280;52977;44.816;20.538;2024-02-21T05:29:35;100556.28;;;8.22;95.49
66176;BME280;52977;44.816;20.538;2024-02-21T05:32:02;100556.13;;;8.37;94.09
66176;BME280;52977;44.816;20.538;2024-02-21T05:34:28;100545.44;;;8.51;93.81
66176;BME280;52977;44.816;20.538;2024-02-21T05:36:53;100549.19;;;8.55;93.06
66176;BME280;52977;44.816;20.538;2024-02-21T05:39:19;100548.84;;;8.62;91.81
66176;BME280;52977;44.816;20.538;2024-02-21T05:41:48;100553.44;;;8.67;91.55
66176;BME280;52977;44.816;20.538;2024-02-21T05:44:14;100558.88;;;8.67;91.67
66176;BME280;52977;44.816;20.538;2024-02-21T05:46:39;100557.75;;;8.38;93.08
66176;BME280;52977;44.816;20.538;2024-02-21T05:49:05;100565.03;;;8.48;93.92
66176;BME280;52977;44.816;20.538;2024-02-21T05:51:33;100572.59;;;8.22;95.35
66176;BME280;52977;44.816;20.538;2024-02-21T05:53:59;100573.50;;;8.42;94.03
66176;BME280;52977;44.816;20.538;2024-02-21T05:56:25;100574.41;;;8.32;94.16
66176;BME280;52977;44.816;20.538;2024-02-21T05:58:50;100579.69;;;8.52;93.72
66176;BME280;52977;44.816;20.538;2024-02-21T06:01:16;100573.47;;;8.47;93.61
66176;BME280;52977;44.816;20.538;2024-02-21T06:03:43;100580.56;;;8.43;93.91
66176;BME280;52977;44.816;20.538;2024-02-21T06:06:12;100585.38;;;8.56;92.87
66176;BME280;52977;44.816;20.538;2024-02-21T06:08:39;100588.34;;;8.60;91.68
66176;BME280;52977;44.816;20.538;2024-02-21T06:11:05;100574.66;;;8.65;91.31
66176;BME280;52977;44.816;20.538;2024-02-21T06:13:31;100593.66;;;8.46;93.24
66176;BME280;52977;44.816;20.538;2024-02-21T06:15:56;100589.59;;;8.38;93.50
66176;BME280;52977;44.816;20.538;2024-02-21T06:18:22;100591.41;;;8.53;93.24
66176;BME280;52977;44.816;20.538;2024-02-21T06:20:48;100596.72;;;8.63;91.78
66176;BME280;52977;44.816;20.538;2024-02-21T06:23:15;100596.69;;;8.68;91.18
66176;BME280;52977;44.816;20.538;2024-02-21T06:25:42;100605.44;;;8.65;91.65
66176;BME280;52977;44.816;20.538;2024-02-21T06:28:09;100609.34;;;8.54;91.38
66176;BME280;52977;44.816;20.538;2024-02-21T06:30:36;100614.28;;;8.47;91.17
66176;BME280;52977;44.816;20.538;2024-02-21T06:33:02;100618.28;;;8.20;93.63
66176;BME280;52977;44.816;20.538;2024-02-21T06:35:29;100615.94;;;8.43;93.21
66176;BME280;52977;44.816;20.538;2024-02-21T06:37:54;100615.94;;;8.48;91.20
66176;BME280;52977;44.816;20.538;2024-02-21T06:40:22;100616.06;;;8.62;91.17
66176;BME280;52977;44.816;20.538;2024-02-21T06:42:49;100619.69;;;8.52;90.69
66176;BME280;52977;44.816;20.538;2024-02-21T06:45:16;100619.34;;;8.64;91.58
66176;BME280;52977;44.816;20.538;2024-02-21T06:47:43;100620.03;;;8.75;90.65
66176;BME280;52977;44.816;20.538;2024-02-21T06:50:09;100612.63;;;8.80;89.77
66176;BME280;52977;44.816;20.538;2024-02-21T06:52:36;100606.88;;;8.82;89.82
66176;BME280;52977;44.816;20.538;2024-02-21T06:55:03;100604.66;;;8.89;89.93
66176;BME280;52977;44.816;20.538;2024-02-21T06:57:30;100613.78;;;8.98;89.12
66176;BME280;52977;44.816;20.538;2024-02-21T06:59:56;100617.06;;;9.00;88.03
66176;BME280;52977;44.816;20.538;2024-02-21T07:02:23;100619.78;;;9.00;88.05
66176;BME280;52977;44.816;20.538;2024-02-21T07:04:49;100625.03;;;8.92;89.09
66176;BME280;52977;44.816;20.538;2024-02-21T07:07:16;100628.47;;;9.02;87.88
66176;BME280;52977;44.816;20.538;2024-02-21T07:09:42;100637.31;;;8.89;88.56
66176;BME280;52977;44.816;20.538;2024-02-21T07:12:08;100641.38;;;8.92;88.44
66176;BME280;52977;44.816;20.538;2024-02-21T07:14:33;100630.41;;;8.72;89.11
66176;BME280;52977;44.816;20.538;2024-02-21T07:16:59;100630.44;;;8.67;88.77
66176;BME280;52977;44.816;20.538;2024-02-21T07:19:25;100632.88;;;8.69;89.53
66176;BME280;52977;44.816;20.538;2024-02-21T07:21:51;100628.13;;;8.85;88.63
66176;BME280;52977;44.816;20.538;2024-02-21T07:24:17;100628.34;;;8.88;87.54
66176;BME280;52977;44.816;20.538;2024-02-21T07:26:43;100634.53;;;8.94;86.95
66176;BME280;52977;44.816;20.538;2024-02-21T07:29:08;100632.63;;;8.95;86.87
66176;BME280;52977;44.816;20.538;2024-02-21T07:31:44;100637.03;;;8.91;87.21
66176;BME280;52977;44.816;20.538;2024-02-21T07:34:12;100644.09;;;8.92;87.00
66176;BME280;52977;44.816;20.538;2024-02-21T07:36:37;100643.75;;;8.98;85.81
66176;BME280;52977;44.816;20.538;2024-02-21T07:39:04;100640.19;;;8.74;87.18
66176;BME280;52977;44.816;20.538;2024-02-21T07:41:31;100640.31;;;8.58;88.72
66176;BME280;52977;44.816;20.538;2024-02-21T07:43:57;100639.91;;;8.75;87.30
66176;BME280;52977;44.816;20.538;2024-02-21T07:46:24;100647.41;;;8.88;86.79
66176;BME280;52977;44.816;20.538;2024-02-21T07:48:50;100650.41;;;8.87;86.61
66176;BME280;52977;44.816;20.538;2024-02-21T07:51:16;100654.22;;;8.86;87.16
66176;BME280;52977;44.816;20.538;2024-02-21T07:53:44;100651.56;;;8.81;87.19
66176;BME280;52977;44.816;20.538;2024-02-21T07:56:15;100656.94;;;8.86;86.68
66176;BME280;52977;44.816;20.538;2024-02-21T07:58:42;100658.00;;;8.90;87.11
66176;BME280;52977;44.816;20.538;2024-02-21T08:01:08;100651.75;;;8.89;87.83
66176;BME280;52977;44.816;20.538;2024-02-21T08:03:35;100652.22;;;8.67;87.73
66176;BME280;52977;44.816;20.538;2024-02-21T08:06:03;100645.22;;;8.61;88.43
66176;BME280;52977;44.816;20.538;2024-02-21T08:08:29;100651.56;;;8.81;87.82
66176;BME280;52977;44.816;20.538;2024-02-21T08:10:54;100648.69;;;8.96;86.99
66176;BME280;52977;44.816;20.538;2024-02-21T08:13:21;100654.78;;;8.83;85.76
66176;BME280;52977;44.816;20.538;2024-02-21T08:15:48;100652.75;;;8.69;87.34
66176;BME280;52977;44.816;20.538;2024-02-21T08:18:15;100662.44;;;8.51;89.71
66176;BME280;52977;44.816;20.538;2024-02-21T08:20:41;100659.44;;;8.53;89.36
66176;BME280;52977;44.816;20.538;2024-02-21T08:23:07;100665.06;;;8.22;90.02
66176;BME280;52977;44.816;20.538;2024-02-21T08:25:33;100662.75;;;8.45;89.07
66176;BME280;52977;44.816;20.538;2024-02-21T08:28:00;100670.41;;;8.37;90.41
66176;BME280;52977;44.816;20.538;2024-02-21T08:30:26;100664.59;;;8.84;91.54
66176;BME280;52977;44.816;20.538;2024-02-21T08:32:52;100662.59;;;9.19;86.52
66176;BME280;52977;44.816;20.538;2024-02-21T08:35:20;100657.69;;;8.92;86.30
66176;BME280;52977;44.816;20.538;2024-02-21T08:37:50;100661.72;;;8.99;86.68
66176;BME280;52977;44.816;20.538;2024-02-21T08:40:16;100651.28;;;8.82;86.75
66176;BME280;52977;44.816;20.538;2024-02-21T08:42:46;100652.66;;;8.80;88.19
66176;BME280;52977;44.816;20.538;2024-02-21T08:45:12;100646.69;;;8.78;88.24
66176;BME280;52977;44.816;20.538;2024-02-21T08:47:39;100650.66;;;8.91;87.68
66176;BME280;52977;44.816;20.538;2024-02-21T08:50:08;100651.00;;;9.08;85.66
66176;BME280;52977;44.816;20.538;2024-02-21T08:52:54;100652.28;;;9.16;86.01
66176;BME280;52977;44.816;20.538;2024-02-21T08:55:21;100665.22;;;9.29;85.64
66176;BME280;52977;44.816;20.538;2024-02-21T08:57:47;100658.28;;;9.42;85.97
66176;BME280;52977;44.816;20.538;2024-02-21T09:00:14;100658.66;;;9.54;84.98
66176;BME280;52977;44.816;20.538;2024-02-21T09:02:42;100659.47;;;9.55;84.03
66176;BME280;52977;44.816;20.538;2024-02-21T09:05:11;100658.81;;;9.63;84.04
66176;BME280;52977;44.816;20.538;2024-02-21T09:07:38;100664.56;;;9.62;83.83
66176;BME280;52977;44.816;20.538;2024-02-21T09:10:05;100666.06;;;9.49;84.27
66176;BME280;52977;44.816;20.538;2024-02-21T09:12:33;100666.75;;;9.40;85.57
66176;BME280;52977;44.816;20.538;2024-02-21T09:15:00;100666.38;;;9.47;85.78
66176;BME280;52977;44.816;20.538;2024-02-21T09:17:26;100666.38;;;9.47;85.28
66176;BME280;52977;44.816;20.538;2024-02-21T09:19:55;100665.50;;;9.28;87.08
66176;BME280;52977;44.816;20.538;2024-02-21T09:22:25;100668.19;;;9.33;87.27
66176;BME280;52977;44.816;20.538;2024-02-21T09:24:51;100669.72;;;9.39;86.51
66176;BME280;52977;44.816;20.538;2024-02-21T09:27:17;100670.78;;;9.43;86.35
66176;BME280;52977;44.816;20.538;2024-02-21T09:29:44;100680.13;;;9.37;87.80
66176;BME280;52977;44.816;20.538;2024-02-21T09:32:12;100675.31;;;9.29;88.29
66176;BME280;52977;44.816;20.538;2024-02-21T09:34:38;100675.94;;;9.20;88.30
66176;BME280;52977;44.816;20.538;2024-02-21T09:37:06;100678.34;;;8.98;90.16
66176;BME280;52977;44.816;20.538;2024-02-21T09:39:32;100682.78;;;9.18;88.56
66176;BME280;52977;44.816;20.538;2024-02-21T09:42:05;100679.38;;;9.31;86.28
66176;BME280;52977;44.816;20.538;2024-02-21T09:44:36;100683.19;;;9.30;84.89
66176;BME280;52977;44.816;20.538;2024-02-21T09:47:10;100684.16;;;9.15;83.21
66176;BME280;52977;44.816;20.538;2024-02-21T09:49:40;100683.19;;;8.77;85.16
66176;BME280;52977;44.816;20.538;2024-02-21T09:52:07;100685.06;;;8.76;87.53
66176;BME280;52977;44.816;20.538;2024-02-21T09:54:34;100676.13;;;8.70;89.82
66176;BME280;52977;44.816;20.538;2024-02-21T09:57:01;100676.59;;;8.83;87.86
66176;BME280;52977;44.816;20.538;2024-02-21T09:59:30;100679.56;;;8.86;88.73
66176;BME280;52977;44.816;20.538;2024-02-21T10:01:57;100676.91;;;9.05;88.54
66176;BME280;52977;44.816;20.538;2024-02-21T10:04:26;100678.50;;;9.12;88.85
66176;BME280;52977;44.816;20.538;2024-02-21T10:06:53;100672.25;;;9.35;88.10
66176;BME280;52977;44.816;20.538;2024-02-21T10:09:28;100670.41;;;9.31;88.51
66176;BME280;52977;44.816;20.538;2024-02-21T10:11:55;100669.47;;;9.40;86.56
66176;BME280;52977;44.816;20.538;2024-02-21T10:14:22;100659.72;;;9.34;84.55
66176;BME280;52977;44.816;20.538;2024-02-21T10:16:55;100664.88;;;9.36;84.42
66176;BME280;52977;44.816;20.538;2024-02-21T10:19:25;100664.94;;;9.31;85.88
66176;BME280;52977;44.816;20.538;2024-02-21T10:22:06;100653.13;;;9.40;84.12
66176;BME280;52977;44.816;20.538;2024-02-21T10:24:34;100663.91;;;9.27;84.64
66176;BME280;52977;44.816;20.538;2024-02-21T10:27:04;100652.28;;;9.16;83.98
66176;BME280;52977;44.816;20.538;2024-02-21T10:29:35;100650.66;;;9.39;83.28
66176;BME280;52977;44.816;20.538;2024-02-21T10:34:32;100646.38;;;9.76;82.09
66176;BME280;52977;44.816;20.538;2024-02-21T10:37:09;100634.75;;;9.89;79.61
66176;BME280;52977;44.816;20.538;2024-02-21T10:39:38;100633.78;;;9.99;78.94
66176;BME280;52977;44.816;20.538;2024-02-21T10:42:05;100633.63;;;10.09;77.82
66176;BME280;52977;44.816;20.538;2024-02-21T10:44:33;100626.91;;;9.64;81.42
66176;BME280;52977;44.816;20.538;2024-02-21T10:47:19;100625.47;;;9.71;79.71
66176;BME280;52977;44.816;20.538;2024-02-21T10:49:50;100621.91;;;9.71;80.86
66176;BME280;52977;44.816;20.538;2024-02-21T10:55:03;100608.16;;;9.81;80.61
66176;BME280;52977;44.816;20.538;2024-02-21T10:57:31;100611.81;;;9.90;80.31
66176;BME280;52977;44.816;20.538;2024-02-21T10:59:58;100607.63;;;9.98;79.57
66176;BME280;52977;44.816;20.538;2024-02-21T11:02:26;100605.13;;;9.83;80.90
66176;BME280;52977;44.816;20.538;2024-02-21T11:04:56;100601.72;;;9.91;80.68
66176;BME280;52977;44.816;20.538;2024-02-21T11:07:25;100605.19;;;9.97;81.23
66176;BME280;52977;44.816;20.538;2024-02-21T11:09:52;100597.44;;;10.04;80.37
66176;BME280;52977;44.816;20.538;2024-02-21T11:12:22;100596.03;;;10.06;79.73
66176;BME280;52977;44.816;20.538;2024-02-21T11:14:48;100593.09;;;10.03;80.37
66176;BME280;52977;44.816;20.538;2024-02-21T11:17:17;100596.47;;;9.95;81.22
66176;BME280;52977;44.816;20.538;2024-02-21T11:19:43;100593.56;;;9.91;80.16
66176;BME280;52977;44.816;20.538;2024-02-21T11:22:16;100596.56;;;9.70;81.45
66176;BME280;52977;44.816;20.538;2024-02-21T11:24:43;100580.63;;;9.58;82.55
66176;BME280;52977;44.816;20.538;2024-02-21T11:27:13;100583.50;;;9.86;81.95
66176;BME280;52977;44.816;20.538;2024-02-21T11:29:44;100576.94;;;10.06;81.13
66176;BME280;52977;44.816;20.538;2024-02-21T11:32:11;100577.38;;;10.14;80.90
66176;BME280;52977;44.816;20.538;2024-02-21T11:34:38;100567.59;;;10.26;79.01
66176;BME280;52977;44.816;20.538;2024-02-21T11:37:13;100566.16;;;10.34;77.46
66176;BME280;52977;44.816;20.538;2024-02-21T11:39:59;100566.44;;;10.33;78.37
66176;BME280;52977;44.816;20.538;2024-02-21T11:42:27;100560.81;;;10.43;77.53
66176;BME280;52977;44.816;20.538;2024-02-21T11:44:54;100557.69;;;10.50;76.64
66176;BME280;52977;44.816;20.538;2024-02-21T11:47:22;100555.84;;;10.45;77.07
66176;BME280;52977;44.816;20.538;2024-02-21T11:49:49;100550.22;;;10.55;76.06
66176;BME280;52977;44.816;20.538;2024-02-21T11:52:21;100550.53;;;10.54;75.33
66176;BME280;52977;44.816;20.538;2024-02-21T11:54:51;100550.13;;;10.60;74.74
66176;BME280;52977;44.816;20.538;2024-02-21T11:57:37;100541.13;;;10.74;74.30
66176;BME280;52977;44.816;20.538;2024-02-21T12:00:25;100538.69;;;10.72;74.82
66176;BME280;52977;44.816;20.538;2024-02-21T12:02:51;100526.28;;;10.94;74.52
66176;BME280;52977;44.816;20.538;2024-02-21T12:05:20;100526.78;;;10.82;73.87
66176;BME280;52977;44.816;20.538;2024-02-21T12:07:46;100527.28;;;10.98;73.63
66176;BME280;52977;44.816;20.538;2024-02-21T12:10:13;100517.78;;;10.96;72.62
66176;BME280;52977;44.816;20.538;2024-02-21T12:12:40;100512.81;;;10.98;73.40
66176;BME280;52977;44.816;20.538;2024-02-21T12:15:07;100505.09;;;11.14;72.07
66176;BME280;52977;44.816;20.538;2024-02-21T12:17:34;100500.94;;;11.16;71.18
66176;BME280;52977;44.816;20.538;2024-02-21T12:20:03;100496.03;;;11.41;69.35
66176;BME280;52977;44.816;20.538;2024-02-21T12:22:49;100495.72;;;11.42;69.08
66176;BME280;52977;44.816;20.538;2024-02-21T12:25:19;100490.56;;;11.63;68.20
66176;BME280;52977;44.816;20.538;2024-02-21T12:27:49;100484.69;;;11.70;67.35
66176;BME280;52977;44.816;20.538;2024-02-21T12:30:16;100480.47;;;11.64;67.86
66176;BME280;52977;44.816;20.538;2024-02-21T12:32:42;100486.94;;;11.68;68.36
66176;BME280;52977;44.816;20.538;2024-02-21T12:35:09;100472.72;;;11.89;67.99
66176;BME280;52977;44.816;20.538;2024-02-21T12:37:35;100480.09;;;12.02;66.20
66176;BME280;52977;44.816;20.538;2024-02-21T12:40:01;100481.66;;;11.94;65.59
66176;BME280;52977;44.816;20.538;2024-02-21T12:42:33;100479.78;;;11.81;66.77
66176;BME280;52977;44.816;20.538;2024-02-21T12:45:00;100476.94;;;11.27;68.70
66176;BME280;52977;44.816;20.538;2024-02-21T12:47:26;100471.81;;;11.11;69.04
66176;BME280;52977;44.816;20.538;2024-02-21T12:49:52;100484.56;;;11.02;69.16
66176;BME280;52977;44.816;20.538;2024-02-21T12:52:18;100476.59;;;10.92;69.07
66176;BME280;52977;44.816;20.538;2024-02-21T12:54:44;100473.25;;;10.81;69.97